sensor_id;sensor_type;location;lat;lon;timestamp;temperature;humidity
59847;DHT22;45728;48.788;2.302;2023-12-20T00:01:50;9.40;99.90
59847;DHT22;45728;48.788;2.302;2023-12-20T00:04:16;9.40;99.90
59847;DHT22;45728;48.788;2.302;2023-12-20T00:06:42;9.50;99.90
59847;DHT22;45728;48.788;2.302;2023-12-20T00:09:08;9.50;99.90
59847;DHT22;45728;48.788;2.302;2023-12-20T00:11:34;9.40;99.90
59847;DHT22;45728;48.788;2.302;2023-12-20T00:14:00;9.40;99.90
59847;DHT22;45728;48.788;2.302;2023-12-20T00:16:26;9.30;99.90
59847;DHT22;45728;48.788;2.302;2023-12-20T00:18:52;9.30;99.90
59847;DHT22;45728;48.788;2.302;2023-12-20T00:21:18;9.20;99.90
59847;DHT22;45728;48.788;2.302;2023-12-20T00:23:44;9.20;99.90
59847;DHT22;45728;48.788;2.302;2023-12-20T00:26:10;9.10;99.90
59847;DHT22;45728;48.788;2.302;2023-12-20T00:28:36;9.10;99.90
59847;DHT22;45728;48.788;2.302;2023-12-20T00:31:02;9.10;99.90
59847;DHT22;45728;48.788;2.302;2023-12-20T00:33:28;9.00;99.90
59847;DHT22;45728;48.788;2.302;2023-12-20T00:35:54;9.00;99.90
59847;DHT22;45728;48.788;2.302;2023-12-20T00:38:20;9.00;99.90
59847;DHT22;45728;48.788;2.302;2023-12-20T00:40:47;9.00;99.90
59847;DHT22;45728;48.788;2.302;2023-12-20T00:43:13;9.00;99.90
59847;DHT22;45728;48.788;2.302;2023-12-20T00:45:39;8.90;99.90
59847;DHT22;45728;48.788;2.302;2023-12-20T00:48:05;8.90;99.90
59847;DHT22;45728;48.788;2.302;2023-12-20T00:50:31;9.00;99.90
59847;DHT22;45728;48.788;2.302;2023-12-20T00:52:57;8.90;99.90
59847;DHT22;45728;48.788;2.302;2023-12-20T00:55:23;8.80;99.90
59847;DHT22;45728;48.788;2.302;2023-12-20T00:57:49;8.70;99.90
59847;DHT22;45728;48.788;2.302;2023-12-20T01:00:15;8.60;99.90
59847;DHT22;45728;48.788;2.302;2023-12-20T01:02:41;8.60;99.90
59847;DHT22;45728;48.788;2.302;2023-12-20T01:05:08;8.50;99.90
59847;DHT22;45728;48.788;2.302;2023-12-20T01:07:35;8.50;99.90
59847;DHT22;45728;48.788;2.302;2023-12-20T01:10:02;8.50;99.90
59847;DHT22;45728;48.788;2.302;2023-12-20T01:12:29;8.40;99.90
59847;DHT22;45728;48.788;2.302;2023-12-20T01:14:55;8.30;99.90
59847;DHT22;45728;48.788;2.302;2023-12-20T01:17:21;8.30;99.90
59847;DHT22;45728;48.788;2.302;2023-12-20T01:19:47;8.20;99.90
59847;DHT22;45728;48.788;2.302;2023-12-20T01:22:13;8.10;99.90
59847;DHT22;45728;48.788;2.302;2023-12-20T01:24:39;8.10;99.90
59847;DHT22;45728;48.788;2.302;2023-12-20T01:27:05;8.00;99.90
59847;DHT22;45728;48.788;2.302;2023-12-20T01:29:31;8.00;99.90
59847;DHT22;45728;48.788;2.302;2023-12-20T01:31:57;8.00;99.90
59847;DHT22;45728;48.788;2.302;2023-12-20T01:34:23;7.90;99.90
59847;DHT22;45728;48.788;2.302;2023-12-20T01:36:49;7.90;99.90
59847;DHT22;45728;48.788;2.302;2023-12-20T01:39:15;7.90;99.90
59847;DHT22;45728;48.788;2.302;2023-12-20T01:41:41;7.90;99.90
59847;DHT22;45728;48.788;2.302;2023-12-20T01:44:07;7.90;99.90
59847;DHT22;45728;48.788;2.302;2023-12-20T01:46:33;7.80;99.90
59847;DHT22;45728;48.788;2.302;2023-12-20T01:48:59;7.80;99.90
59847;DHT22;45728;48.788;2.302;2023-12-20T01:51:25;7.80;99.90
59847;DHT22;45728;48.788;2.302;2023-12-20T01:53:55;7.70;99.90
59847;DHT22;45728;48.788;2.302;2023-12-20T01:56:22;7.70;99.90
59847;DHT22;45728;48.788;2.302;2023-12-20T01:58:48;7.70;99.90
59847;DHT22;45728;48.788;2.302;2023-12-20T02:01:15;7.60;99.90
59847;DHT22;45728;48.788;2.302;2023-12-20T02:03:41;7.50;99.90
59847;DHT22;45728;48.788;2.302;2023-12-20T02:06:08;7.60;99.90
59847;DHT22;45728;48.788;2.302;2023-12-20T02:08:35;7.60;99.90
59847;DHT22;45728;48.788;2.302;2023-12-20T02:11:01;7.50;99.90
59847;DHT22;45728;48.788;2.302;2023-12-20T02:13:27;7.60;99.90
59847;DHT22;45728;48.788;2.302;2023-12-20T02:15:54;7.60;99.90
59847;DHT22;45728;48.788;2.302;2023-12-20T02:18:21;7.60;99.90
59847;DHT22;45728;48.788;2.302;2023-12-20T02:20:47;7.60;99.90
59847;DHT22;45728;48.788;2.302;2023-12-20T02:23:13;7.70;99.90
59847;DHT22;45728;48.788;2.302;2023-12-20T02:25:39;7.60;99.90
59847;DHT22;45728;48.788;2.302;2023-12-20T02:28:05;7.60;99.90
59847;DHT22;45728;48.788;2.302;2023-12-20T02:30:32;7.70;99.90
59847;DHT22;45728;48.788;2.302;2023-12-20T02:32:59;7.70;99.90
59847;DHT22;45728;48.788;2.302;2023-12-20T02:35:26;7.70;99.90
59847;DHT22;45728;48.788;2.302;2023-12-20T02:37:52;7.70;99.90
59847;DHT22;45728;48.788;2.302;2023-12-20T02:40:19;7.70;99.90
59847;DHT22;45728;48.788;2.302;2023-12-20T02:42:45;7.70;99.90
59847;DHT22;45728;48.788;2.302;2023-12-20T02:45:11;7.80;99.90
59847;DHT22;45728;48.788;2.302;2023-12-20T02:47:37;7.70;99.90
59847;DHT22;45728;48.788;2.302;2023-12-20T02:50:03;7.70;99.90
59847;DHT22;45728;48.788;2.302;2023-12-20T02:52:29;7.70;99.90
59847;DHT22;45728;48.788;2.302;2023-12-20T02:54:55;7.70;99.90
59847;DHT22;45728;48.788;2.302;2023-12-20T02:57:21;7.70;99.90
59847;DHT22;45728;48.788;2.302;2023-12-20T02:59:47;7.70;99.90
59847;DHT22;45728;48.788;2.302;2023-12-20T03:02:13;7.70;99.90
59847;DHT22;45728;48.788;2.302;2023-12-20T03:04:39;7.70;99.90
59847;DHT22;45728;48.788;2.302;2023-12-20T03:07:05;7.60;99.90
59847;DHT22;45728;48.788;2.302;2023-12-20T03:09:32;7.60;99.90
59847;DHT22;45728;48.788;2.302;2023-12-20T03:11:58;7.60;99.90
59847;DHT22;45728;48.788;2.302;2023-12-20T03:14:24;7.40;99.90
59847;DHT22;45728;48.788;2.302;2023-12-20T03:16:50;7.40;99.90
59847;DHT22;45728;48.788;2.302;2023-12-20T03:19:20;7.30;99.90
59847;DHT22;45728;48.788;2.302;2023-12-20T03:21:46;7.40;99.90
59847;DHT22;45728;48.788;2.302;2023-12-20T03:24:12;7.30;99.90
59847;DHT22;45728;48.788;2.302;2023-12-20T03:26:38;7.20;99.90
59847;DHT22;45728;48.788;2.302;2023-12-20T03:29:04;7.20;99.90
59847;DHT22;45728;48.788;2.302;2023-12-20T03:31:30;7.20;99.90
59847;DHT22;45728;48.788;2.302;2023-12-20T03:33:56;7.10;99.90
59847;DHT22;45728;48.788;2.302;2023-12-20T03:36:22;7.10;99.90
59847;DHT22;45728;48.788;2.302;2023-12-20T03:38:48;7.00;99.90
59847;DHT22;45728;48.788;2.302;2023-12-20T03:41:14;7.00;99.90
59847;DHT22;45728;48.788;2.302;2023-12-20T03:43:40;7.00;99.90
59847;DHT22;45728;48.788;2.302;2023-12-20T03:46:08;6.90;99.90
59847;DHT22;45728;48.788;2.302;2023-12-20T03:48:34;6.90;99.90
59847;DHT22;45728;48.788;2.302;2023-12-20T03:51:00;6.90;99.90
59847;DHT22;45728;48.788;2.302;2023-12-20T03:53:26;6.90;99.90
59847;DHT22;45728;48.788;2.302;2023-12-20T03:55:52;6.90;99.90
59847;DHT22;45728;48.788;2.302;2023-12-20T03:58:18;6.90;99.90
59847;DHT22;45728;48.788;2.302;2023-12-20T04:00:44;6.80;99.90
59847;DHT22;45728;48.788;2.302;2023-12-20T04:03:10;6.80;99.90
59847;DHT22;45728;48.788;2.302;2023-12-20T04:05:40;6.80;99.90
59847;DHT22;45728;48.788;2.302;2023-12-20T04:08:07;6.80;99.90
59847;DHT22;45728;48.788;2.302;2023-12-20T04:10:33;6.80;99.90
59847;DHT22;45728;48.788;2.302;2023-12-20T04:12:59;6.80;99.90
59847;DHT22;45728;48.788;2.302;2023-12-20T04:15:25;6.70;99.90
59847;DHT22;45728;48.788;2.302;2023-12-20T04:17:51;6.60;99.90
59847;DHT22;45728;48.788;2.302;2023-12-20T04:20:18;6.60;99.90
59847;DHT22;45728;48.788;2.302;2023-12-20T04:22:44;6.70;99.90
59847;DHT22;45728;48.788;2.302;2023-12-20T04:25:10;6.60;99.90
59847;DHT22;45728;48.788;2.302;2023-12-20T04:27:36;6.60;99.90
59847;DHT22;45728;48.788;2.302;2023-12-20T04:30:02;6.60;99.90
59847;DHT22;45728;48.788;2.302;2023-12-20T04:32:28;6.60;99.90
59847;DHT22;45728;48.788;2.302;2023-12-20T04:34:54;6.60;99.90
59847;DHT22;45728;48.788;2.302;2023-12-20T04:37:20;6.50;99.90
59847;DHT22;45728;48.788;2.302;2023-12-20T04:39:46;6.50;99.90
59847;DHT22;45728;48.788;2.302;2023-12-20T04:42:12;6.50;99.90
59847;DHT22;45728;48.788;2.302;2023-12-20T04:44:38;6.50;99.90
59847;DHT22;45728;48.788;2.302;2023-12-20T04:47:04;6.60;99.90
59847;DHT22;45728;48.788;2.302;2023-12-20T04:49:30;6.60;99.90
59847;DHT22;45728;48.788;2.302;2023-12-20T04:51:56;6.50;99.90
59847;DHT22;45728;48.788;2.302;2023-12-20T04:54:22;6.60;99.90
59847;DHT22;45728;48.788;2.302;2023-12-20T04:56:49;6.50;99.90
59847;DHT22;45728;48.788;2.302;2023-12-20T04:59:15;6.50;99.90
59847;DHT22;45728;48.788;2.302;2023-12-20T05:01:41;6.50;99.90
59847;DHT22;45728;48.788;2.302;2023-12-20T05:04:07;6.50;99.90
59847;DHT22;45728;48.788;2.302;2023-12-20T05:06:33;6.40;99.90
59847;DHT22;45728;48.788;2.302;2023-12-20T05:08:59;6.40;99.90
59847;DHT22;45728;48.788;2.302;2023-12-20T05:11:25;6.50;99.90
59847;DHT22;45728;48.788;2.302;2023-12-20T05:13:51;6.50;99.90
59847;DHT22;45728;48.788;2.302;2023-12-20T05:16:17;6.50;99.90
59847;DHT22;45728;48.788;2.302;2023-12-20T05:18:45;6.40;99.90
59847;DHT22;45728;48.788;2.302;2023-12-20T05:21:11;6.40;99.90
59847;DHT22;45728;48.788;2.302;2023-12-20T05:23:37;6.50;99.90
59847;DHT22;45728;48.788;2.302;2023-12-20T05:26:03;6.50;99.90
59847;DHT22;45728;48.788;2.302;2023-12-20T05:28:29;6.50;99.90
59847;DHT22;45728;48.788;2.302;2023-12-20T05:30:55;6.50;99.90
59847;DHT22;45728;48.788;2.302;2023-12-20T05:33:21;6.50;99.90
59847;DHT22;45728;48.788;2.302;2023-12-20T05:35:47;6.50;99.90
59847;DHT22;45728;48.788;2.302;2023-12-20T05:38:13;6.40;99.90
59847;DHT22;45728;48.788;2.302;2023-12-20T05:40:39;6.50;99.90
59847;DHT22;45728;48.788;2.302;2023-12-20T05:43:05;6.50;99.90
59847;DHT22;45728;48.788;2.302;2023-12-20T05:45:31;6.50;99.90
59847;DHT22;45728;48.788;2.302;2023-12-20T05:47:57;6.50;99.90
59847;DHT22;45728;48.788;2.302;2023-12-20T05:50:24;6.50;99.90
59847;DHT22;45728;48.788;2.302;2023-12-20T05:52:51;6.50;99.90
59847;DHT22;45728;48.788;2.302;2023-12-20T05:55:17;6.50;99.90
59847;DHT22;45728;48.788;2.302;2023-12-20T05:57:43;6.50;99.90
59847;DHT22;45728;48.788;2.302;2023-12-20T06:00:09;6.40;99.90
59847;DHT22;45728;48.788;2.302;2023-12-20T06:02:36;6.50;99.90
59847;DHT22;45728;48.788;2.302;2023-12-20T06:05:04;6.40;99.90
59847;DHT22;45728;48.788;2.302;2023-12-20T06:07:31;6.40;99.90
59847;DHT22;45728;48.788;2.302;2023-12-20T06:09:57;6.40;99.90
59847;DHT22;45728;48.788;2.302;2023-12-20T06:12:23;6.30;99.90
59847;DHT22;45728;48.788;2.302;2023-12-20T06:14:49;6.40;99.90
59847;DHT22;45728;48.788;2.302;2023-12-20T06:17:15;6.40;99.90
59847;DHT22;45728;48.788;2.302;2023-12-20T06:19:41;6.40;99.90
59847;DHT22;45728;48.788;2.302;2023-12-20T06:22:10;6.40;99.90
59847;DHT22;45728;48.788;2.302;2023-12-20T06:24:36;6.40;99.90
59847;DHT22;45728;48.788;2.302;2023-12-20T06:27:02;6.40;99.90
59847;DHT22;45728;48.788;2.302;2023-12-20T06:29:29;6.40;99.90
59847;DHT22;45728;48.788;2.302;2023-12-20T06:31:55;6.40;99.90
59847;DHT22;45728;48.788;2.302;2023-12-20T06:34:21;6.40;99.90
59847;DHT22;45728;48.788;2.302;2023-12-20T06:36:47;6.40;99.90
59847;DHT22;45728;48.788;2.302;2023-12-20T06:39:13;6.40;99.90
59847;DHT22;45728;48.788;2.302;2023-12-20T06:41:39;6.40;99.90
59847;DHT22;45728;48.788;2.302;2023-12-20T06:44:06;6.40;99.90
59847;DHT22;45728;48.788;2.302;2023-12-20T06:46:32;6.40;99.90
59847;DHT22;45728;48.788;2.302;2023-12-20T06:48:58;6.40;99.90
59847;DHT22;45728;48.788;2.302;2023-12-20T06:51:24;6.40;99.90
59847;DHT22;45728;48.788;2.302;2023-12-20T06:53:52;6.40;99.90
59847;DHT22;45728;48.788;2.302;2023-12-20T06:56:18;6.30;99.90
59847;DHT22;45728;48.788;2.302;2023-12-20T06:58:44;6.30;99.90
59847;DHT22;45728;48.788;2.302;2023-12-20T07:01:11;6.30;99.90
59847;DHT22;45728;48.788;2.302;2023-12-20T07:03:38;6.30;99.90
59847;DHT22;45728;48.788;2.302;2023-12-20T07:06:04;6.40;99.90
59847;DHT22;45728;48.788;2.302;2023-12-20T07:08:30;6.40;99.90
59847;DHT22;45728;48.788;2.302;2023-12-20T07:10:56;6.40;99.90
59847;DHT22;45728;48.788;2.302;2023-12-20T07:13:22;6.40;99.90
59847;DHT22;45728;48.788;2.302;2023-12-20T07:15:48;6.40;99.90
59847;DHT22;45728;48.788;2.302;2023-12-20T07:18:14;6.40;99.90
59847;DHT22;45728;48.788;2.302;2023-12-20T07:20:40;6.30;99.90
59847;DHT22;45728;48.788;2.302;2023-12-20T07:23:07;6.30;99.90
59847;DHT22;45728;48.788;2.302;2023-12-20T07:25:33;6.40;99.90
59847;DHT22;45728;48.788;2.302;2023-12-20T07:27:59;6.40;99.90
59847;DHT22;45728;48.788;2.302;2023-12-20T07:30:25;6.40;99.90
59847;DHT22;45728;48.788;2.302;2023-12-20T07:32:51;6.40;99.90
59847;DHT22;45728;48.788;2.302;2023-12-20T07:35:18;6.50;99.90
59847;DHT22;45728;48.788;2.302;2023-12-20T07:37:44;6.40;99.90
59847;DHT22;45728;48.788;2.302;2023-12-20T07:40:10;6.40;99.90
59847;DHT22;45728;48.788;2.302;2023-12-20T07:42:36;6.40;99.90
59847;DHT22;45728;48.788;2.302;2023-12-20T07:45:03;6.30;99.90
59847;DHT22;45728;48.788;2.302;2023-12-20T07:47:29;6.40;99.90
59847;DHT22;45728;48.788;2.302;2023-12-20T07:49:55;6.30;99.90
59847;DHT22;45728;48.788;2.302;2023-12-20T07:52:21;6.30;99.90
59847;DHT22;45728;48.788;2.302;2023-12-20T07:54:48;6.40;99.90
59847;DHT22;45728;48.788;2.302;2023-12-20T07:57:14;6.40;99.90
59847;DHT22;45728;48.788;2.302;2023-12-20T07:59:40;6.30;99.90
59847;DHT22;45728;48.788;2.302;2023-12-20T08:02:06;6.30;99.90
59847;DHT22;45728;48.788;2.302;2023-12-20T08:04:32;6.40;99.90
59847;DHT22;45728;48.788;2.302;2023-12-20T08:06:58;6.40;99.90
59847;DHT22;45728;48.788;2.302;2023-12-20T08:09:26;6.40;99.90
59847;DHT22;45728;48.788;2.302;2023-12-20T08:11:52;6.40;99.90
59847;DHT22;45728;48.788;2.302;2023-12-20T08:14:18;6.40;99.90
59847;DHT22;45728;48.788;2.302;2023-12-20T08:16:44;6.40;99.90
59847;DHT22;45728;48.788;2.302;2023-12-20T08:19:10;6.40;99.90
59847;DHT22;45728;48.788;2.302;2023-12-20T08:21:36;6.50;99.90
59847;DHT22;45728;48.788;2.302;2023-12-20T08:24:02;6.50;99.90
59847;DHT22;45728;48.788;2.302;2023-12-20T08:26:28;6.50;99.90
59847;DHT22;45728;48.788;2.302;2023-12-20T08:28:54;6.50;99.90
59847;DHT22;45728;48.788;2.302;2023-12-20T08:31:20;6.60;99.90
59847;DHT22;45728;48.788;2.302;2023-12-20T08:33:48;6.60;99.90
59847;DHT22;45728;48.788;2.302;2023-12-20T08:36:14;6.60;99.90
59847;DHT22;45728;48.788;2.302;2023-12-20T08:38:40;6.70;99.90
59847;DHT22;45728;48.788;2.302;2023-12-20T08:41:07;6.70;99.90
59847;DHT22;45728;48.788;2.302;2023-12-20T08:43:34;6.60;99.90
59847;DHT22;45728;48.788;2.302;2023-12-20T08:46:01;6.60;99.90
59847;DHT22;45728;48.788;2.302;2023-12-20T08:48:28;6.70;99.90
59847;DHT22;45728;48.788;2.302;2023-12-20T08:50:54;6.70;99.90
59847;DHT22;45728;48.788;2.302;2023-12-20T08:53:21;6.70;99.90
59847;DHT22;45728;48.788;2.302;2023-12-20T08:55:47;6.70;99.90
59847;DHT22;45728;48.788;2.302;2023-12-20T08:58:14;6.70;99.90
59847;DHT22;45728;48.788;2.302;2023-12-20T09:00:40;6.80;99.90
59847;DHT22;45728;48.788;2.302;2023-12-20T09:03:06;6.80;99.90
59847;DHT22;45728;48.788;2.302;2023-12-20T09:05:32;6.80;99.90
59847;DHT22;45728;48.788;2.302;2023-12-20T09:07:58;6.80;99.90
59847;DHT22;45728;48.788;2.302;2023-12-20T09:10:24;6.90;99.90
59847;DHT22;45728;48.788;2.302;2023-12-20T09:12:51;6.90;99.90
59847;DHT22;45728;48.788;2.302;2023-12-20T09:15:17;7.00;99.90
59847;DHT22;45728;48.788;2.302;2023-12-20T09:17:43;7.20;99.90
59847;DHT22;45728;48.788;2.302;2023-12-20T09:20:10;7.40;99.90
59847;DHT22;45728;48.788;2.302;2023-12-20T09:22:36;7.80;99.90
59847;DHT22;45728;48.788;2.302;2023-12-20T09:25:05;8.40;99.90
59847;DHT22;45728;48.788;2.302;2023-12-20T09:27:31;8.80;99.90
59847;DHT22;45728;48.788;2.302;2023-12-20T09:29:57;9.30;99.90
59847;DHT22;45728;48.788;2.302;2023-12-20T09:32:23;9.50;99.90
59847;DHT22;45728;48.788;2.302;2023-12-20T09:34:49;9.30;99.90
59847;DHT22;45728;48.788;2.302;2023-12-20T09:37:15;8.80;99.90
59847;DHT22;45728;48.788;2.302;2023-12-20T09:39:41;8.60;99.90
59847;DHT22;45728;48.788;2.302;2023-12-20T09:42:07;8.50;99.90
59847;DHT22;45728;48.788;2.302;2023-12-20T09:44:34;8.40;99.90
59847;DHT22;45728;48.788;2.302;2023-12-20T09:47:03;8.20;99.90
59847;DHT22;45728;48.788;2.302;2023-12-20T09:49:30;8.20;99.90
59847;DHT22;45728;48.788;2.302;2023-12-20T09:51:56;8.90;99.90
59847;DHT22;45728;48.788;2.302;2023-12-20T09:54:23;9.30;99.90
59847;DHT22;45728;48.788;2.302;2023-12-20T09:56:50;9.40;99.90
59847;DHT22;45728;48.788;2.302;2023-12-20T09:59:16;9.30;99.90
59847;DHT22;45728;48.788;2.302;2023-12-20T10:01:44;9.20;99.90
59847;DHT22;45728;48.788;2.302;2023-12-20T10:04:12;9.00;99.90
59847;DHT22;45728;48.788;2.302;2023-12-20T10:06:42;8.80;99.90
59847;DHT22;45728;48.788;2.302;2023-12-20T10:09:12;8.70;99.90
59847;DHT22;45728;48.788;2.302;2023-12-20T10:11:39;8.70;99.90
59847;DHT22;45728;48.788;2.302;2023-12-20T10:14:06;8.70;99.90
59847;DHT22;45728;48.788;2.302;2023-12-20T10:16:33;8.80;99.90
59847;DHT22;45728;48.788;2.302;2023-12-20T10:19:00;9.00;99.90
59847;DHT22;45728;48.788;2.302;2023-12-20T10:21:30;9.60;99.90
59847;DHT22;45728;48.788;2.302;2023-12-20T10:23:57;10.00;99.90
59847;DHT22;45728;48.788;2.302;2023-12-20T10:26:25;10.50;99.90
59847;DHT22;45728;48.788;2.302;2023-12-20T10:29:00;10.70;99.90
59847;DHT22;45728;48.788;2.302;2023-12-20T10:31:30;10.60;99.90
59847;DHT22;45728;48.788;2.302;2023-12-20T10:33:57;10.40;99.90
59847;DHT22;45728;48.788;2.302;2023-12-20T10:36:27;10.50;99.90
59847;DHT22;45728;48.788;2.302;2023-12-20T10:38:54;10.30;99.90
59847;DHT22;45728;48.788;2.302;2023-12-20T10:41:29;9.90;99.90
59847;DHT22;45728;48.788;2.302;2023-12-20T10:44:02;9.60;99.90
59847;DHT22;45728;48.788;2.302;2023-12-20T10:46:30;9.50;99.90
59847;DHT22;45728;48.788;2.302;2023-12-20T10:48:57;9.50;99.90
59847;DHT22;45728;48.788;2.302;2023-12-20T10:51:24;9.40;99.90
59847;DHT22;45728;48.788;2.302;2023-12-20T10:53:53;9.30;99.90
59847;DHT22;45728;48.788;2.302;2023-12-20T10:56:20;9.20;99.90
59847;DHT22;45728;48.788;2.302;2023-12-20T10:58:48;9.20;99.90
59847;DHT22;45728;48.788;2.302;2023-12-20T11:01:16;9.20;99.90
59847;DHT22;45728;48.788;2.302;2023-12-20T11:03:53;9.30;99.90
59847;DHT22;45728;48.788;2.302;2023-12-20T11:14:48;9.20;99.90
59847;DHT22;45728;48.788;2.302;2023-12-20T11:17:15;9.70;99.90
59847;DHT22;45728;48.788;2.302;2023-12-20T11:22:20;9.90;99.90
59847;DHT22;45728;48.788;2.302;2023-12-20T11:24:52;10.40;99.90
59847;DHT22;45728;48.788;2.302;2023-12-20T11:27:19;10.80;99.90
59847;DHT22;45728;48.788;2.302;2023-12-20T11:29:52;11.30;99.90
59847;DHT22;45728;48.788;2.302;2023-12-20T11:34:52;11.10;99.90
59847;DHT22;45728;48.788;2.302;2023-12-20T11:37:19;10.80;99.90
59847;DHT22;45728;48.788;2.302;2023-12-20T11:39:56;10.50;99.90
59847;DHT22;45728;48.788;2.302;2023-12-20T11:42:26;10.40;99.90
59847;DHT22;45728;48.788;2.302;2023-12-20T11:44:52;10.40;99.90
59847;DHT22;45728;48.788;2.302;2023-12-20T11:47:19;10.20;99.90
59847;DHT22;45728;48.788;2.302;2023-12-20T11:49:48;10.00;99.90
59847;DHT22;45728;48.788;2.302;2023-12-20T11:52:15;9.90;99.90
59847;DHT22;45728;48.788;2.302;2023-12-20T11:54:41;9.80;99.90
59847;DHT22;45728;48.788;2.302;2023-12-20T11:57:07;9.80;99.90
59847;DHT22;45728;48.788;2.302;2023-12-20T11:59:33;9.80;99.90
59847;DHT22;45728;48.788;2.302;2023-12-20T12:01:59;9.80;99.90
59847;DHT22;45728;48.788;2.302;2023-12-20T12:04:27;9.80;99.90
59847;DHT22;45728;48.788;2.302;2023-12-20T12:06:54;10.00;99.90
59847;DHT22;45728;48.788;2.302;2023-12-20T12:09:20;10.10;99.90
59847;DHT22;45728;48.788;2.302;2023-12-20T12:11:46;10.10;99.90
59847;DHT22;45728;48.788;2.302;2023-12-20T12:14:12;10.00;99.90
59847;DHT22;45728;48.788;2.302;2023-12-20T12:16:38;10.00;99.90
59847;DHT22;45728;48.788;2.302;2023-12-20T12:19:04;10.10;99.90
59847;DHT22;45728;48.788;2.302;2023-12-20T12:21:30;10.10;99.90
59847;DHT22;45728;48.788;2.302;2023-12-20T12:24:09;10.00;99.90
59847;DHT22;45728;48.788;2.302;2023-12-20T12:26:35;9.90;99.90
59847;DHT22;45728;48.788;2.302;2023-12-20T12:29:01;9.90;99.90
59847;DHT22;45728;48.788;2.302;2023-12-20T12:31:28;9.90;99.90
59847;DHT22;45728;48.788;2.302;2023-12-20T12:33:54;9.90;99.90
59847;DHT22;45728;48.788;2.302;2023-12-20T12:36:20;9.80;99.90
59847;DHT22;45728;48.788;2.302;2023-12-20T12:38:46;9.70;99.90
59847;DHT22;45728;48.788;2.302;2023-12-20T12:41:13;9.70;99.90
59847;DHT22;45728;48.788;2.302;2023-12-20T12:43:41;9.60;99.90
59847;DHT22;45728;48.788;2.302;2023-12-20T12:46:07;9.70;99.90
59847;DHT22;45728;48.788;2.302;2023-12-20T12:48:33;9.70;99.90
59847;DHT22;45728;48.788;2.302;2023-12-20T12:50:59;9.70;99.90
59847;DHT22;45728;48.788;2.302;2023-12-20T12:53:26;9.70;99.90
59847;DHT22;45728;48.788;2.302;2023-12-20T12:55:55;9.70;99.90
59847;DHT22;45728;48.788;2.302;2023-12-20T12:58:21;9.80;99.90
59847;DHT22;45728;48.788;2.302;2023-12-20T13:00:48;9.90;99.90
59847;DHT22;45728;48.788;2.302;2023-12-20T13:03:14;9.90;99.90
59847;DHT22;45728;48.788;2.302;2023-12-20T13:05:41;9.90;99.90
59847;DHT22;45728;48.788;2.302;2023-12-20T13:08:07;9.80;99.90
59847;DHT22;45728;48.788;2.302;2023-12-20T13:10:35;9.80;99.90
59847;DHT22;45728;48.788;2.302;2023-12-20T13:13:01;9.80;99.90
59847;DHT22;45728;48.788;2.302;2023-12-20T13:15:27;9.80;99.90
59847;DHT22;45728;48.788;2.302;2023-12-20T13:17:53;9.90;99.90
59847;DHT22;45728;48.788;2.302;2023-12-20T13:20:19;9.90;99.90
59847;DHT22;45728;48.788;2.302;2023-12-20T13:22:45;10.00;99.90
59847;DHT22;45728;48.788;2.302;2023-12-20T13:25:15;10.20;99.90
59847;DHT22;45728;48.788;2.302;2023-12-20T13:27:45;10.30;99.90
59847;DHT22;45728;48.788;2.302;2023-12-20T13:30:17;10.40;99.90
59847;DHT22;45728;48.788;2.302;2023-12-20T13:32:44;10.50;99.90
59847;DHT22;45728;48.788;2.302;2023-12-20T13:35:10;10.50;99.90
59847;DHT22;45728;48.788;2.302;2023-12-20T13:37:36;10.60;99.90
59847;DHT22;45728;48.788;2.302;2023-12-20T13:40:02;10.60;99.90
59847;DHT22;45728;48.788;2.302;2023-12-20T13:42:30;10.50;99.90
59847;DHT22;45728;48.788;2.302;2023-12-20T13:44:56;10.50;99.90
59847;DHT22;45728;48.788;2.302;2023-12-20T13:47:22;10.40;99.90
59847;DHT22;45728;48.788;2.302;2023-12-20T13:49:48;10.40;99.90
59847;DHT22;45728;48.788;2.302;2023-12-20T13:52:14;10.40;99.90
59847;DHT22;45728;48.788;2.302;2023-12-20T13:54:40;10.40;99.90
59847;DHT22;45728;48.788;2.302;2023-12-20T13:57:06;10.40;99.90
59847;DHT22;45728;48.788;2.302;2023-12-20T13:59:32;10.30;99.90
59847;DHT22;45728;48.788;2.302;2023-12-20T14:01:58;10.30;99.90
59847;DHT22;45728;48.788;2.302;2023-12-20T14:04:25;10.30;99.90
59847;DHT22;45728;48.788;2.302;2023-12-20T14:06:51;10.30;99.90
59847;DHT22;45728;48.788;2.302;2023-12-20T14:09:18;10.30;99.90
59847;DHT22;45728;48.788;2.302;2023-12-20T14:11:44;10.30;99.90
59847;DHT22;45728;48.788;2.302;2023-12-20T14:14:31;10.20;99.90
59847;DHT22;45728;48.788;2.302;2023-12-20T14:16:56;10.10;99.90
59847;DHT22;45728;48.788;2.302;2023-12-20T14:19:32;10.00;99.90
59847;DHT22;45728;48.788;2.302;2023-12-20T14:22:01;10.00;99.90
59847;DHT22;45728;48.788;2.302;2023-12-20T14:24:28;10.00;99.90
59847;DHT22;45728;48.788;2.302;2023-12-20T14:26:57;9.90;99.90
59847;DHT22;45728;48.788;2.302;2023-12-20T14:29:24;9.90;99.90
59847;DHT22;45728;48.788;2.302;2023-12-20T14:31:50;9.90;99.90
59847;DHT22;45728;48.788;2.302;2023-12-20T14:34:16;10.00;99.90
59847;DHT22;45728;48.788;2.302;2023-12-20T14:36:42;10.00;99.90
59847;DHT22;45728;48.788;2.302;2023-12-20T14:39:08;9.90;99.90
59847;DHT22;45728;48.788;2.302;2023-12-20T14:41:37;9.90;99.90
59847;DHT22;45728;48.788;2.302;2023-12-20T14:44:03;9.90;99.90
59847;DHT22;45728;48.788;2.302;2023-12-20T14:46:30;9.90;99.90
59847;DHT22;45728;48.788;2.302;2023-12-20T14:48:56;10.00;99.90
59847;DHT22;45728;48.788;2.302;2023-12-20T14:51:22;9.80;99.90
59847;DHT22;45728;48.788;2.302;2023-12-20T14:53:48;9.90;99.90
59847;DHT22;45728;48.788;2.302;2023-12-20T14:56:14;9.90;99.90
59847;DHT22;45728;48.788;2.302;2023-12-20T14:58:41;9.90;99.90
59847;DHT22;45728;48.788;2.302;2023-12-20T15:01:18;9.90;99.90
59847;DHT22;45728;48.788;2.302;2023-12-20T15:03:47;10.00;99.90
59847;DHT22;45728;48.788;2.302;2023-12-20T15:06:14;10.00;99.90
59847;DHT22;45728;48.788;2.302;2023-12-20T15:08:40;10.00;99.90
59847;DHT22;45728;48.788;2.302;2023-12-20T15:11:07;9.90;99.90
59847;DHT22;45728;48.788;2.302;2023-12-20T15:13:33;9.90;99.90
59847;DHT22;45728;48.788;2.302;2023-12-20T15:15:59;9.90;99.90
59847;DHT22;45728;48.788;2.302;2023-12-20T15:18:25;9.90;99.90
59847;DHT22;45728;48.788;2.302;2023-12-20T15:20:51;9.90;99.90
59847;DHT22;45728;48.788;2.302;2023-12-20T15:23:23;10.00;99.90
59847;DHT22;45728;48.788;2.302;2023-12-20T15:25:52;10.00;99.90
59847;DHT22;45728;48.788;2.302;2023-12-20T15:28:18;10.00;99.90
59847;DHT22;45728;48.788;2.302;2023-12-20T15:30:44;10.00;99.90
59847;DHT22;45728;48.788;2.302;2023-12-20T15:33:10;10.00;99.90
59847;DHT22;45728;48.788;2.302;2023-12-20T15:35:37;10.00;99.90
59847;DHT22;45728;48.788;2.302;2023-12-20T15:38:03;10.00;99.90
59847;DHT22;45728;48.788;2.302;2023-12-20T15:40:30;10.00;99.90
59847;DHT22;45728;48.788;2.302;2023-12-20T15:42:56;10.00;99.90
59847;DHT22;45728;48.788;2.302;2023-12-20T15:45:25;10.10;99.90
59847;DHT22;45728;48.788;2.302;2023-12-20T15:47:51;10.10;99.90
59847;DHT22;45728;48.788;2.302;2023-12-20T15:50:17;10.10;99.90
59847;DHT22;45728;48.788;2.302;2023-12-20T15:52:43;10.10;99.90